SLCO/CIJ METAR and TAF weather

Enter ICAO airport designator
Station Type Date Time Source
SLCO METAR 2019/04/24 23:00 UTC NOAA

SLCO 242300Z 17003KT 9999 FEW020 SCT080 27/25 Q1011


Station Type Date Time Source
SLCO Decoded METAR 2019/04/24 23:00 UTC NOAA

Cobija, Bolivia (SLCO) 11-02S 068-47W 260M
Apr 24, 2019 - 07:00 PM EDT / 2019.04.24 2300 UTC
Wind: from the S (170 degrees) at 3 MPH (3 KT):0
Visibility: greater than 7 mile(s):0
Sky conditions: partly cloudy
Temperature: 80 F (27 C)
Dew Point: 77 F (25 C)
Relative Humidity: 88%
Pressure (altimeter): 29.85 in. Hg (1011 hPa)
ob: SLCO 242300Z 17003KT 9999 FEW020 SCT080 27/25 Q1011
cycle: 23

Station Type Date Time Source
SLCO TAF 2019/04/25 06:51 UTC NOAA

TAF SLCO 250450Z 2506/2606 00000KT 9999 SCT015 BKN070 TX32/2520Z TN23 /2510Z
BECMG 2512/2515 12006KT PROB40
TEMPO 2518/2522 7000 TSRA FEW020 FEW023CB BKN080

Example: see airport list